Latest Coastal Weather Observations for Nullarbor

IDS60701

Issued at 6:31 am CST Monday 6 July 2015 (issued every 10 minutes, with the page automatically refreshed every 10 minutes)

About coastal observations | Map of coastal stations | Coastal observations for SA | Marine services | Other Formats
Station Details ID: 018106 Name: NULLARBOR Lat: -31.45 Lon: 130.90 Height: 64.0 m
Data from the previous 72 hours. | See also: Recent months at Nullarbor
Date/Time
CST
Temp

°C
Wind Pressure Rain
since 9am
mm
Weather Cloud Vis
km
Sea
Height
m
Swell
Dir
 
Speed
knots
Gust
knots
hPa Trend Height
m
Period
s
Dir
06/06:30am 5.5 NW 7 7 1021.2 - 0.0 - Partly cloudy 10 - - - -
06/06:00am 6.2 NW 6 7 1021.0 - 0.0 - - 9 - - - -
06/05:30am 8.6 WSW 6 7 1020.7 - 0.0 - - 10 - - - -
06/05:00am 8.4 W 6 7 1020.7 - 0.0 - - 9 - - - -
06/04:30am 9.7 WSW 6 8 1020.6 - 0.0 - Partly cloudy 10 - - - -
06/04:00am 8.7 W 6 7 1020.6 - 0.0 - Partly cloudy 10 - - - -
06/03:31am 8.1 WNW 7 8 1020.6 - 0.0 - Partly cloudy 9 - - - -
06/03:30am 8.1 WNW 7 8 1020.7 - 0.0 - Partly cloudy 8 - - - -
06/03:00am 7.8 W 7 8 1020.5 - 0.0 - Mostly clear 6 - - - -
06/02:30am 8.1 W 5 6 1020.4 - 0.0 - Partly cloudy 7 - - - -
06/02:00am 8.0 W 7 8 1020.4 - 0.0 - - 6 - - - -
06/01:30am 8.0 WNW 7 7 1020.5 - 0.0 - Partly cloudy 0.9 - - - -
06/01:00am 8.3 W 7 8 1020.6 - 0.0 - Partly cloudy 0.7 - - - -
06/12:30am 8.3 WNW 7 8 1020.4 - 0.0 - Partly cloudy 6 - - - -
06/12:00am 9.0 W 7 7 1020.5 - 0.0 - - 10 - - - -
 
Date/Time
CST
Temp

°C
Wind Pressure Rain
since 9am
mm
Weather Cloud Vis
km
Sea
Height
m
Swell
Dir
 
Speed
knots
Gust
knots
hPa Trend Height
m
Period
s
Dir
05/11:30pm 8.6 WNW 6 8 1020.5 - 0.0 - Partly cloudy 10 - - - -
05/11:00pm 8.2 WNW 7 8 1020.4 - 0.0 - - 10 - - - -
05/10:30pm 9.3 W 7 7 1020.1 - 0.0 - - 10 - - - -
05/10:00pm 9.4 W 7 8 1020.1 - 0.0 - - 10 - - - -
05/09:30pm 10.5 WSW 7 8 1019.9 - 0.0 - - 10 - - - -
05/09:00pm 11.4 WSW 6 7 1019.6 - 0.0 - - 10 - - - -
05/08:30pm 11.8 WSW 7 8 1019.5 - 0.0 - - 10 - - - -
05/08:00pm 12.1 SW 8 9 1019.3 - 0.0 - - 10 - - - -
05/07:30pm 13.2 SW 7 8 1019.0 - 0.0 - - 10 - - - -
05/07:00pm 14.2 SW 9 12 1018.7 - 0.0 - Partly cloudy 10 - - - -
05/06:30pm 15.0 SW 11 14 1018.3 - 0.0 - Partly cloudy 10 - - - -
05/06:00pm 15.8 SW 11 15 1018.1 - 0.0 - - 10 - - - -
05/05:30pm 17.2 SW 15 20 1017.7 - 0.0 - - 10 - - - -
05/05:00pm 18.5 SW 17 23 1017.4 - 0.0 - - 10 - - - -
05/04:30pm 19.0 WSW 18 24 1017.0 - 0.0 - - 10 - - - -
05/04:00pm 20.5 SW 16 20 1016.7 - 0.0 - - 10 - - - -
05/03:30pm 20.6 SW 13 18 1016.6 - 0.0 - - 10 - - - -
05/03:00pm 23.4 WNW 13 18 1016.5 - 0.0 - Mostly clear 10 - - - -
05/02:30pm 23.9 WNW 15 19 1016.6 - 0.0 - - 10 - - - -
05/02:00pm 23.9 WNW 14 21 1016.9 - 0.0 - - 10 - - - -
05/01:30pm 23.2 WNW 13 23 1017.3 - 0.0 - - 10 - - - -
05/01:00pm 22.6 NW 12 17 1017.8 - 0.0 - - 10 - - - -
05/12:30pm 21.5 NW 10 15 1018.4 - 0.0 - Partly cloudy 10 - - - -
05/12:00pm 19.7 NNW 9 13 1018.8 - 0.0 - Cloudy 10 - - - -
05/11:30am 17.1 NNW 8 9 1019.3 - 0.0 - Cloudy 10 - - - -
05/11:00am 15.7 NNW 9 11 1019.4 - 0.0 - Cloudy 10 - - - -
05/10:30am 14.5 NNW 9 11 1019.5 - 0.0 - Cloudy 10 - - - -
05/10:00am 13.3 NNW 10 13 1019.5 - 0.0 - Cloudy 10 - - - -
05/09:30am 11.9 N 11 14 1019.3 - 0.0 - Cloudy 10 - - - -
05/09:00am 11.2 N 13 15 1019.4 - 0.2 - Mostly cloudy 10 - - - -
05/08:30am 8.8 N 10 13 1019.4 - 0.2 - Partly cloudy 10 - - - -
05/08:00am 6.1 N 9 10 1019.4 - 0.2 - Partly cloudy 10 - - - -
05/07:30am 5.4 N 8 10 1019.3 - 0.2 - Partly cloudy 10 - - - -
05/07:00am 6.2 N 9 10 1019.1 - 0.2 - - 10 - - - -
05/06:30am 6.7 N 10 12 1018.6 - 0.2 - - 10 - - - -
05/06:00am 6.0 N 10 11 1018.7 - 0.2 - - 10 - - - -
05/05:30am 5.3 N 9 11 1018.8 - 0.2 - - 10 - - - -
05/05:00am 4.9 N 9 10 1019.0 - 0.2 - - 10 - - - -
05/04:30am 4.9 N 9 11 1019.0 - 0.2 - - 10 - - - -
05/04:00am 4.7 NNW 7 8 1019.3 - 0.0 - - 10 - - - -
05/03:56am 4.6 NNW 7 8 1019.3 - 0.0 - - 10 - - - -
05/03:30am 5.0 NNW 5 6 1019.4 - 0.0 - - 6 - - - -
05/03:17am 4.9 NNW 6 6 1019.5 - 0.0 - - 7 - - - -
05/03:15am 4.7 NNW 6 6 1019.6 - 0.0 - - 8 - - - -
05/03:00am 4.9 NNW 5 6 1019.8 - 0.0 - - 3 - - - -
05/02:32am 5.8 NNW 6 7 1019.8 - 0.0 - Partly cloudy 2 - - - -
05/02:30am 6.0 NNW 6 7 1019.9 - 0.0 - Partly cloudy 2 - - - -
05/02:00am 6.5 N 5 6 1020.2 - 0.0 - Partly cloudy 0.7 - - - -
05/01:30am 6.9 N 5 6 1020.4 - 0.0 - Cloudy 0.3 - - - -
05/01:00am 7.1 NNW 6 7 1020.6 - 0.0 - Cloudy 0.1 - - - -
05/12:36am 7.3 NNW 5 6 1020.6 - 0.0 - Partly cloudy 0.4 - - - -
05/12:30am 6.9 N 5 6 1020.7 - 0.0 - Partly cloudy 0.2 - - - -
05/12:04am 7.2 NNW 5 6 1020.8 - 0.0 - Partly cloudy 0.4 - - - -
05/12:00am 7.2 NNW 5 7 1020.8 - 0.0 - Mostly clear 0.3 - - - -
 
Date/Time
CST
Temp

°C
Wind Pressure Rain
since 9am
mm
Weather Cloud Vis
km
Sea
Height
m
Swell
Dir
 
Speed
knots
Gust
knots
hPa Trend Height
m
Period
s
Dir
04/11:30pm 7.7 NW 6 7 1021.0 - 0.0 - Cloudy 0.1 - - - -
04/11:10pm 7.4 WNW 7 7 1021.0 - 0.0 - Partly cloudy 0.2 - - - -
04/11:00pm 7.7 WNW 6 7 1021.0 - 0.0 - Partly cloudy 0.3 - - - -
04/10:30pm 7.9 WNW 7 8 1021.0 - 0.0 - - 0.2 - - - -
04/10:00pm 8.6 WNW 6 6 1021.0 - 0.0 - - 0.4 - - - -
04/09:30pm 9.7 WNW 6 6 1021.0 - 0.0 - - 6 - - - -
04/09:00pm 10.5 W 7 7 1021.0 - 0.0 - - 10 - - - -
04/08:30pm 12.0 W 5 6 1020.9 - 0.0 - - 10 - - - -
04/08:00pm 11.3 WSW 8 9 1020.7 - 0.0 - - 10 - - - -
04/07:30pm 11.7 W 5 6 1020.6 - 0.0 - - 10 - - - -
04/07:00pm 13.0 SW 3 4 1020.3 - 0.0 - - 10 - - - -
04/06:30pm 14.3 SW 5 5 1020.0 - 0.0 - - 10 - - - -
04/06:00pm 15.8 SW 7 8 1020.0 - 0.0 - - 10 - - - -
04/05:30pm 17.6 SW 10 13 1019.7 - 0.0 - - 10 - - - -
04/05:00pm 19.1 SW 12 15 1019.7 - 0.0 - - 10 - - - -
04/04:30pm 22.6 NW 10 13 1019.6 - 0.0 - Partly cloudy 10 - - - -
04/04:00pm 22.5 NNW 9 15 1019.7 - 0.0 - - 10 - - - -
04/03:30pm 22.9 N 10 16 1019.7 - 0.0 - - 10 - - - -
04/03:00pm 22.3 N 11 14 1019.8 - 0.0 - - 10 - - - -
04/02:30pm 22.0 N 11 16 1019.9 - 0.0 - - 10 - - - -
04/02:00pm 22.2 N 11 15 1020.3 - 0.0 - - 10 - - - -
04/01:30pm 22.1 N 12 17 1020.7 - 0.0 - - 10 - - - -
04/01:00pm 21.5 N 12 15 1021.4 - 0.0 - - 10 - - - -
04/12:30pm 20.7 NNW 12 17 1021.8 - 0.0 - - 10 - - - -
04/12:00pm 20.0 N 11 14 1022.2 - 0.0 - - 10 - - - -
04/11:30am 19.2 N 12 16 1022.6 - 0.0 - - 10 - - - -
04/11:00am 18.3 N 12 15 1023.1 - 0.0 - - 10 - - - -
04/10:30am 16.7 N 14 17 1022.9 - 0.0 - - 10 - - - -
04/10:00am 14.7 N 13 16 1022.9 - 0.0 - - 10 - - - -
04/09:30am 12.6 N 13 17 1022.8 - 0.0 - - 10 - - - -
04/09:00am 10.1 N 9 11 1022.9 - 0.0 - - 10 - - - -
04/08:30am 7.7 N 8 10 1022.8 - 0.0 - - 10 - - - -
04/08:00am 6.2 NNE 8 9 1022.6 - 0.0 - - 10 - - - -
04/07:30am 6.8 N 9 11 1022.6 - 0.0 - - 10 - - - -
04/07:00am 6.9 NNE 9 10 1022.5 - 0.0 - - 10 - - - -
04/06:30am 8.4 NNE 7 9 1022.5 - 0.0 - Cloudy 10 - - - -
04/06:00am 9.2 N 8 10 1022.2 - 0.0 - Partly cloudy 10 - - - -
04/05:30am 9.9 N 9 11 1022.2 - 0.0 - Cloudy 10 - - - -
04/05:00am 10.2 N 9 12 1022.2 - 0.0 - Cloudy 10 - - - -
04/04:30am 10.3 N 10 13 1022.2 - 0.0 - Cloudy 10 - - - -
04/04:00am 10.5 NNE 9 11 1022.3 - 0.0 - Partly cloudy 10 - - - -
04/03:30am 10.9 NNE 9 12 1022.2 - 0.0 - Partly cloudy 10 - - - -
04/03:00am 11.3 NNE 10 12 1022.4 - 0.0 - Cloudy 10 - - - -
04/02:30am 11.0 NNE 8 11 1022.5 - 0.0 - Partly cloudy 10 - - - -
04/02:00am 10.9 NNE 10 13 1022.4 - 0.0 - Partly cloudy 10 - - - -
04/01:30am 10.3 NNE 9 11 1022.5 - 0.0 - Cloudy 10 - - - -
04/01:00am 9.8 NNE 8 10 1022.7 - 0.0 - Cloudy 10 - - - -
04/12:30am 9.2 NNE 9 10 1022.7 - 0.0 - - 10 - - - -
04/12:00am 9.4 NNE 8 10 1022.7 - 0.0 - Partly cloudy 10 - - - -
 
Date/Time
CST
Temp

°C
Wind Pressure Rain
since 9am
mm
Weather Cloud Vis
km
Sea
Height
m
Swell
Dir
 
Speed
knots
Gust
knots
hPa Trend Height
m
Period
s
Dir
03/11:30pm 9.9 NNE 9 11 1022.7 - 0.0 - Partly cloudy 10 - - - -
03/11:00pm 10.2 NNE 9 10 1022.7 - 0.0 - - 10 - - - -
03/10:30pm 10.6 NNE 8 10 1022.8 - 0.0 - - 10 - - - -
03/10:00pm 11.0 NNE 9 11 1022.9 - 0.0 - - 10 - - - -
03/09:30pm 11.4 NE 9 11 1023.1 - 0.0 - - 10 - - - -
03/09:00pm 11.4 NNE 10 11 1023.1 - 0.0 - Cloudy 10 - - - -
03/08:30pm 11.4 NE 10 11 1022.9 - 0.0 - - 10 - - - -
03/08:00pm 11.4 NE 9 10 1022.9 - 0.0 - - 10 - - - -
03/07:30pm 12.1 NE 9 11 1022.8 - 0.0 - - 10 - - - -
03/07:00pm 13.1 NE 11 11 1022.6 - 0.0 - - 10 - - - -
03/06:30pm 13.7 NE 10 10 1022.5 - 0.0 - - 10 - - - -
03/06:00pm 16.2 NE 7 7 1022.5 - 0.0 - Mostly clear 10 - - - -
03/05:30pm 19.2 NNE 7 8 1022.5 - 0.0 - Partly cloudy 10 - - - -
03/05:00pm 20.5 N 6 9 1022.5 - 0.0 - Partly cloudy 10 - - - -
03/04:30pm 20.8 N 8 10 1022.5 - 0.0 - - 10 - - - -
03/04:00pm 21.1 N 8 10 1022.5 - 0.0 - - 10 - - - -
03/03:30pm 21.2 N 8 13 1022.6 - 0.0 - - 10 - - - -
03/03:00pm 21.1 N 10 15 1022.8 - 0.0 - - 10 - - - -
03/02:30pm 20.8 N 11 16 1023.1 - 0.0 - - 10 - - - -
03/02:00pm 20.1 N 12 17 1023.6 - 0.0 - - 10 - - - -
03/01:30pm 20.5 N 14 20 1024.1 - 0.0 - - 10 - - - -
03/01:00pm 19.8 N 14 20 1024.6 - 0.0 - - 10 - - - -
03/12:30pm 19.3 N 14 18 1025.3 - 0.0 - - 10 - - - -
03/12:00pm 18.4 N 14 20 1026.0 - 0.0 - - 10 - - - -
03/11:30am 17.6 N 16 21 1026.6 - 0.0 - - 10 - - - -
03/11:00am 16.3 N 17 21 1027.0 - 0.0 - - 10 - - - -
03/10:30am 15.1 N 16 20 1027.3 - 0.0 - - 10 - - - -
03/10:00am 14.2 N 15 18 1027.2 - 0.0 - - 10 - - - -
03/09:30am 11.7 NNE 11 13 1027.2 - 0.0 - - 10 - - - -
03/09:00am 9.0 NNE 10 13 1027.0 - 0.0 - - 10 - - - -
03/08:30am 6.2 NNE 10 12 1026.7 - 0.0 - - 10 - - - -
03/08:00am 4.4 NNE 10 11 1026.5 - 0.0 - - 10 - - - -
03/07:30am 4.3 NNE 9 11 1026.3 - 0.0 - - 10 - - - -
03/07:00am 5.1 NNE 9 11 1026.2 - 0.0 - - 10 - - - -

Other Formats:

Comma delimited format used in spreadsheet applications
http://www.bom.gov.au/fwo/IDS60701/IDS60701.94651.axf

JavaScript Object Notation format (JSON) in row-major order
http://www.bom.gov.au/fwo/IDS60701/IDS60701.94651.json